sensor_id;sensor_type;location;lat;lon;timestamp;temperature;humidity
3310;DHT22;1667;53.238;10.394;2022-12-07T00:02:15;6.60;99.90
3310;DHT22;1667;53.238;10.394;2022-12-07T00:07:13;6.70;99.90
3310;DHT22;1667;53.238;10.394;2022-12-07T00:12:11;6.70;99.90
3310;DHT22;1667;53.238;10.394;2022-12-07T00:23:34;6.70;99.90
3310;DHT22;1667;53.238;10.394;2022-12-07T00:28:33;7.10;99.90
3310;DHT22;1667;53.238;10.394;2022-12-07T00:33:32;6.80;99.90
3310;DHT22;1667;53.238;10.394;2022-12-07T00:38:32;6.80;99.90
3310;DHT22;1667;53.238;10.394;2022-12-07T00:43:33;6.90;99.90
3310;DHT22;1667;53.238;10.394;2022-12-07T00:48:31;6.90;99.90
3310;DHT22;1667;53.238;10.394;2022-12-07T00:53:29;7.00;99.90
3310;DHT22;1667;53.238;10.394;2022-12-07T00:58:36;6.90;99.90
3310;DHT22;1667;53.238;10.394;2022-12-07T01:03:35;7.20;99.90
3310;DHT22;1667;53.238;10.394;2022-12-07T01:15:05;6.90;99.90
3310;DHT22;1667;53.238;10.394;2022-12-07T01:20:04;6.90;99.90
3310;DHT22;1667;53.238;10.394;2022-12-07T01:25:03;6.90;99.90
3310;DHT22;1667;53.238;10.394;2022-12-07T01:30:05;7.00;99.90
3310;DHT22;1667;53.238;10.394;2022-12-07T01:35:04;6.90;99.90
3310;DHT22;1667;53.238;10.394;2022-12-07T01:40:04;6.90;99.90
3310;DHT22;1667;53.238;10.394;2022-12-07T01:52:03;6.90;99.90
3310;DHT22;1667;53.238;10.394;2022-12-07T01:57:03;6.90;99.90
3310;DHT22;1667;53.238;10.394;2022-12-07T02:02:05;6.90;99.90
3310;DHT22;1667;53.238;10.394;2022-12-07T02:07:07;6.90;99.90
3310;DHT22;1667;53.238;10.394;2022-12-07T02:12:05;6.90;99.90
3310;DHT22;1667;53.238;10.394;2022-12-07T02:17:10;6.90;99.90
3310;DHT22;1667;53.238;10.394;2022-12-07T02:22:24;7.30;99.90
3310;DHT22;1667;53.238;10.394;2022-12-07T02:27:43;7.30;99.90
3310;DHT22;1667;53.238;10.394;2022-12-07T02:32:51;7.00;99.90
3310;DHT22;1667;53.238;10.394;2022-12-07T02:37:58;7.00;99.90
3310;DHT22;1667;53.238;10.394;2022-12-07T02:43:14;7.00;99.90
3310;DHT22;1667;53.238;10.394;2022-12-07T02:48:17;7.00;99.90
3310;DHT22;1667;53.238;10.394;2022-12-07T02:53:32;7.40;99.90
3310;DHT22;1667;53.238;10.394;2022-12-07T02:58:38;7.00;99.90
3310;DHT22;1667;53.238;10.394;2022-12-07T03:03:44;7.00;99.90
3310;DHT22;1667;53.238;10.394;2022-12-07T03:08:52;7.00;99.90
3310;DHT22;1667;53.238;10.394;2022-12-07T03:13:59;7.20;99.90
3310;DHT22;1667;53.238;10.394;2022-12-07T03:19:05;7.00;99.90
3310;DHT22;1667;53.238;10.394;2022-12-07T03:24:07;7.00;99.90
3310;DHT22;1667;53.238;10.394;2022-12-07T03:29:09;6.90;99.90
3310;DHT22;1667;53.238;10.394;2022-12-07T03:34:16;7.00;99.90
3310;DHT22;1667;53.238;10.394;2022-12-07T03:39:21;6.70;99.90
3310;DHT22;1667;53.238;10.394;2022-12-07T03:44:21;6.70;99.90
3310;DHT22;1667;53.238;10.394;2022-12-07T03:49:24;6.70;99.90
3310;DHT22;1667;53.238;10.394;2022-12-07T04:07:17;6.70;99.90
3310;DHT22;1667;53.238;10.394;2022-12-07T04:12:15;6.70;99.90
3310;DHT22;1667;53.238;10.394;2022-12-07T04:17:13;6.70;99.90
3310;DHT22;1667;53.238;10.394;2022-12-07T04:22:11;7.00;99.90
3310;DHT22;1667;53.238;10.394;2022-12-07T04:27:11;6.60;99.90
3310;DHT22;1667;53.238;10.394;2022-12-07T04:32:09;6.70;99.90
3310;DHT22;1667;53.238;10.394;2022-12-07T04:37:07;6.60;99.90
3310;DHT22;1667;53.238;10.394;2022-12-07T04:42:05;6.50;99.90
3310;DHT22;1667;53.238;10.394;2022-12-07T04:47:05;6.50;99.90
3310;DHT22;1667;53.238;10.394;2022-12-07T04:52:03;6.40;99.90
3310;DHT22;1667;53.238;10.394;2022-12-07T04:57:01;6.40;99.90
3310;DHT22;1667;53.238;10.394;2022-12-07T05:02:00;6.40;99.90
3310;DHT22;1667;53.238;10.394;2022-12-07T05:06:59;6.30;99.90
3310;DHT22;1667;53.238;10.394;2022-12-07T05:11:57;6.30;99.90
3310;DHT22;1667;53.238;10.394;2022-12-07T05:16:56;6.60;99.90
3310;DHT22;1667;53.238;10.394;2022-12-07T05:21:54;6.20;99.90
3310;DHT22;1667;53.238;10.394;2022-12-07T05:26:53;6.20;99.90
3310;DHT22;1667;53.238;10.394;2022-12-07T05:31:51;6.20;99.90
3310;DHT22;1667;53.238;10.394;2022-12-07T05:36:50;6.10;99.90
3310;DHT22;1667;53.238;10.394;2022-12-07T05:41:48;6.30;99.90
3310;DHT22;1667;53.238;10.394;2022-12-07T05:47:05;6.30;99.90
3310;DHT22;1667;53.238;10.394;2022-12-07T05:52:03;6.20;99.90
3310;DHT22;1667;53.238;10.394;2022-12-07T05:57:02;6.10;99.90
3310;DHT22;1667;53.238;10.394;2022-12-07T06:02:01;6.10;99.90
3310;DHT22;1667;53.238;10.394;2022-12-07T06:07:02;6.20;99.90
3310;DHT22;1667;53.238;10.394;2022-12-07T06:12:00;6.10;99.90
3310;DHT22;1667;53.238;10.394;2022-12-07T06:17:16;6.10;99.90
3310;DHT22;1667;53.238;10.394;2022-12-07T06:22:16;6.10;99.90
3310;DHT22;1667;53.238;10.394;2022-12-07T06:27:14;6.10;99.90
3310;DHT22;1667;53.238;10.394;2022-12-07T06:37:49;6.00;99.90
3310;DHT22;1667;53.238;10.394;2022-12-07T06:42:47;6.00;99.90
3310;DHT22;1667;53.238;10.394;2022-12-07T06:47:45;6.00;99.90
3310;DHT22;1667;53.238;10.394;2022-12-07T06:53:07;5.90;99.90
3310;DHT22;1667;53.238;10.394;2022-12-07T06:58:05;5.90;99.90
3310;DHT22;1667;53.238;10.394;2022-12-07T07:03:03;5.90;99.90
3310;DHT22;1667;53.238;10.394;2022-12-07T07:14:59;5.70;99.90
3310;DHT22;1667;53.238;10.394;2022-12-07T07:19:57;5.70;99.90
3310;DHT22;1667;53.238;10.394;2022-12-07T07:24:56;5.70;99.90
3310;DHT22;1667;53.238;10.394;2022-12-07T07:29:54;5.60;99.90
3310;DHT22;1667;53.238;10.394;2022-12-07T07:34:53;5.60;99.90
3310;DHT22;1667;53.238;10.394;2022-12-07T07:46:15;5.70;99.90
3310;DHT22;1667;53.238;10.394;2022-12-07T07:51:14;5.70;99.90
3310;DHT22;1667;53.238;10.394;2022-12-07T07:56:12;5.70;99.90
3310;DHT22;1667;53.238;10.394;2022-12-07T08:01:11;6.00;99.90
3310;DHT22;1667;53.238;10.394;2022-12-07T08:06:10;5.70;99.90
3310;DHT22;1667;53.238;10.394;2022-12-07T08:11:10;5.70;99.90
3310;DHT22;1667;53.238;10.394;2022-12-07T08:16:09;5.70;99.90
3310;DHT22;1667;53.238;10.394;2022-12-07T08:21:12;5.70;99.90
3310;DHT22;1667;53.238;10.394;2022-12-07T08:26:14;5.80;99.90
3310;DHT22;1667;53.238;10.394;2022-12-07T08:31:14;5.80;99.90
3310;DHT22;1667;53.238;10.394;2022-12-07T08:36:13;5.90;99.90
3310;DHT22;1667;53.238;10.394;2022-12-07T08:41:13;5.90;99.90
3310;DHT22;1667;53.238;10.394;2022-12-07T08:46:15;5.90;99.90
3310;DHT22;1667;53.238;10.394;2022-12-07T08:51:15;5.90;99.90
3310;DHT22;1667;53.238;10.394;2022-12-07T08:56:14;6.10;99.90
3310;DHT22;1667;53.238;10.394;2022-12-07T09:01:16;6.00;99.90
3310;DHT22;1667;53.238;10.394;2022-12-07T09:06:14;6.00;99.90
3310;DHT22;1667;53.238;10.394;2022-12-07T09:11:14;6.10;99.90
3310;DHT22;1667;53.238;10.394;2022-12-07T09:16:29;6.10;99.90
3310;DHT22;1667;53.238;10.394;2022-12-07T09:21:27;6.10;99.90
3310;DHT22;1667;53.238;10.394;2022-12-07T09:26:27;6.20;99.90
3310;DHT22;1667;53.238;10.394;2022-12-07T09:31:25;6.30;99.90
3310;DHT22;1667;53.238;10.394;2022-12-07T09:36:23;6.40;99.90
3310;DHT22;1667;53.238;10.394;2022-12-07T09:41:23;6.30;99.90
3310;DHT22;1667;53.238;10.394;2022-12-07T09:46:23;6.40;99.90
3310;DHT22;1667;53.238;10.394;2022-12-07T09:58:21;6.50;99.90
3310;DHT22;1667;53.238;10.394;2022-12-07T10:03:21;6.60;99.90
3310;DHT22;1667;53.238;10.394;2022-12-07T10:08:19;6.50;99.90
3310;DHT22;1667;53.238;10.394;2022-12-07T10:13:20;6.50;99.90
3310;DHT22;1667;53.238;10.394;2022-12-07T10:18:27;6.60;99.90
3310;DHT22;1667;53.238;10.394;2022-12-07T10:23:43;6.70;99.90
3310;DHT22;1667;53.238;10.394;2022-12-07T10:28:59;6.70;99.90
3310;DHT22;1667;53.238;10.394;2022-12-07T10:34:00;6.70;99.90
3310;DHT22;1667;53.238;10.394;2022-12-07T10:39:01;6.80;99.90
3310;DHT22;1667;53.238;10.394;2022-12-07T10:44:01;7.20;99.90
3310;DHT22;1667;53.238;10.394;2022-12-07T10:49:08;6.90;99.90
3310;DHT22;1667;53.238;10.394;2022-12-07T10:54:12;7.00;99.90
3310;DHT22;1667;53.238;10.394;2022-12-07T11:06:20;7.00;99.90
3310;DHT22;1667;53.238;10.394;2022-12-07T11:11:32;7.20;99.90
3310;DHT22;1667;53.238;10.394;2022-12-07T11:16:40;7.20;99.90
3310;DHT22;1667;53.238;10.394;2022-12-07T11:28:17;7.30;99.90
3310;DHT22;1667;53.238;10.394;2022-12-07T11:33:24;7.60;99.90
3310;DHT22;1667;53.238;10.394;2022-12-07T11:38:28;7.30;99.90
3310;DHT22;1667;53.238;10.394;2022-12-07T11:43:32;7.30;99.90
3310;DHT22;1667;53.238;10.394;2022-12-07T11:48:35;7.30;99.90
3310;DHT22;1667;53.238;10.394;2022-12-07T11:53:39;7.30;99.90
3310;DHT22;1667;53.238;10.394;2022-12-07T11:58:48;7.70;99.90
3310;DHT22;1667;53.238;10.394;2022-12-07T12:22:14;7.40;99.90
3310;DHT22;1667;53.238;10.394;2022-12-07T12:27:20;7.40;99.90
3310;DHT22;1667;53.238;10.394;2022-12-07T12:38:51;7.40;99.90
3310;DHT22;1667;53.238;10.394;2022-12-07T12:43:51;7.70;99.90
3310;DHT22;1667;53.238;10.394;2022-12-07T12:48:50;7.40;99.90
3310;DHT22;1667;53.238;10.394;2022-12-07T12:53:49;7.40;99.90
3310;DHT22;1667;53.238;10.394;2022-12-07T12:58:48;7.40;99.90
3310;DHT22;1667;53.238;10.394;2022-12-07T13:03:52;7.40;99.90
3310;DHT22;1667;53.238;10.394;2022-12-07T13:08:52;7.40;99.90
3310;DHT22;1667;53.238;10.394;2022-12-07T13:13:51;7.40;99.90
3310;DHT22;1667;53.238;10.394;2022-12-07T13:18:49;7.40;99.90
3310;DHT22;1667;53.238;10.394;2022-12-07T13:30:59;7.50;99.90
3310;DHT22;1667;53.238;10.394;2022-12-07T13:35:58;7.50;99.90
3310;DHT22;1667;53.238;10.394;2022-12-07T13:41:10;7.50;99.90
3310;DHT22;1667;53.238;10.394;2022-12-07T13:53:12;7.50;99.90
3310;DHT22;1667;53.238;10.394;2022-12-07T13:58:10;7.50;99.90
3310;DHT22;1667;53.238;10.394;2022-12-07T14:03:28;7.50;99.90
3310;DHT22;1667;53.238;10.394;2022-12-07T14:08:30;7.50;99.90
3310;DHT22;1667;53.238;10.394;2022-12-07T14:13:31;7.40;99.90
3310;DHT22;1667;53.238;10.394;2022-12-07T14:19:02;7.70;99.90
3310;DHT22;1667;53.238;10.394;2022-12-07T14:30:56;7.40;99.90
3310;DHT22;1667;53.238;10.394;2022-12-07T14:35:55;7.30;99.90
3310;DHT22;1667;53.238;10.394;2022-12-07T14:47:30;7.30;99.90
3310;DHT22;1667;53.238;10.394;2022-12-07T14:52:51;7.30;99.90
3310;DHT22;1667;53.238;10.394;2022-12-07T14:58:12;7.30;99.90
3310;DHT22;1667;53.238;10.394;2022-12-07T15:10:02;7.20;99.90
3310;DHT22;1667;53.238;10.394;2022-12-07T15:21:39;7.10;99.90
3310;DHT22;1667;53.238;10.394;2022-12-07T15:33:09;7.00;99.90
3310;DHT22;1667;53.238;10.394;2022-12-07T15:38:07;6.90;99.90
3310;DHT22;1667;53.238;10.394;2022-12-07T15:43:07;6.90;99.90
3310;DHT22;1667;53.238;10.394;2022-12-07T15:55:16;6.90;99.90
3310;DHT22;1667;53.238;10.394;2022-12-07T16:00:14;7.10;99.90
3310;DHT22;1667;53.238;10.394;2022-12-07T16:05:13;6.80;99.90
3310;DHT22;1667;53.238;10.394;2022-12-07T16:10:11;6.80;99.90
3310;DHT22;1667;53.238;10.394;2022-12-07T16:15:11;6.70;99.90
3310;DHT22;1667;53.238;10.394;2022-12-07T16:20:10;6.90;99.90
3310;DHT22;1667;53.238;10.394;2022-12-07T16:38:07;6.70;99.90
3310;DHT22;1667;53.238;10.394;2022-12-07T16:43:05;6.70;99.90
3310;DHT22;1667;53.238;10.394;2022-12-07T16:48:04;6.50;99.90
3310;DHT22;1667;53.238;10.394;2022-12-07T16:58:59;6.50;99.90
3310;DHT22;1667;53.238;10.394;2022-12-07T17:04:00;6.40;99.90
3310;DHT22;1667;53.238;10.394;2022-12-07T17:09:29;6.40;99.90
3310;DHT22;1667;53.238;10.394;2022-12-07T17:26:32;6.30;99.90
3310;DHT22;1667;53.238;10.394;2022-12-07T17:31:47;6.30;99.90
3310;DHT22;1667;53.238;10.394;2022-12-07T17:43:19;6.40;99.90
3310;DHT22;1667;53.238;10.394;2022-12-07T17:48:17;6.50;99.90
3310;DHT22;1667;53.238;10.394;2022-12-07T17:53:15;6.30;99.90
3310;DHT22;1667;53.238;10.394;2022-12-07T17:58:13;6.30;99.90
3310;DHT22;1667;53.238;10.394;2022-12-07T18:03:13;6.50;99.90
3310;DHT22;1667;53.238;10.394;2022-12-07T18:08:11;6.50;99.90
3310;DHT22;1667;53.238;10.394;2022-12-07T18:13:10;6.20;99.90
3310;DHT22;1667;53.238;10.394;2022-12-07T18:18:27;6.60;99.90
3310;DHT22;1667;53.238;10.394;2022-12-07T18:23:25;6.20;99.90
3310;DHT22;1667;53.238;10.394;2022-12-07T18:28:23;6.20;99.90
3310;DHT22;1667;53.238;10.394;2022-12-07T18:39:22;6.20;99.90
3310;DHT22;1667;53.238;10.394;2022-12-07T18:44:29;6.30;99.90
3310;DHT22;1667;53.238;10.394;2022-12-07T18:49:27;6.40;99.90
3310;DHT22;1667;53.238;10.394;2022-12-07T19:01:16;6.20;99.90
3310;DHT22;1667;53.238;10.394;2022-12-07T19:06:14;6.20;99.90
3310;DHT22;1667;53.238;10.394;2022-12-07T19:11:17;6.10;99.90
3310;DHT22;1667;53.238;10.394;2022-12-07T19:16:34;6.20;99.90
3310;DHT22;1667;53.238;10.394;2022-12-07T19:21:32;6.30;99.90
3310;DHT22;1667;53.238;10.394;2022-12-07T19:26:31;6.10;99.90
3310;DHT22;1667;53.238;10.394;2022-12-07T19:31:29;6.10;99.90
3310;DHT22;1667;53.238;10.394;2022-12-07T19:36:29;6.10;99.90
3310;DHT22;1667;53.238;10.394;2022-12-07T19:41:27;6.10;99.90
3310;DHT22;1667;53.238;10.394;2022-12-07T19:46:31;6.00;99.90
3310;DHT22;1667;53.238;10.394;2022-12-07T19:51:31;6.00;99.90
3310;DHT22;1667;53.238;10.394;2022-12-07T19:56:30;6.00;99.90
3310;DHT22;1667;53.238;10.394;2022-12-07T20:01:28;6.20;99.90
3310;DHT22;1667;53.238;10.394;2022-12-07T20:06:27;6.00;99.90
3310;DHT22;1667;53.238;10.394;2022-12-07T20:11:26;6.00;99.90
3310;DHT22;1667;53.238;10.394;2022-12-07T20:16:42;5.90;99.90
3310;DHT22;1667;53.238;10.394;2022-12-07T20:21:42;5.90;99.90
3310;DHT22;1667;53.238;10.394;2022-12-07T20:26:43;6.00;99.90
3310;DHT22;1667;53.238;10.394;2022-12-07T20:31:41;6.00;99.90
3310;DHT22;1667;53.238;10.394;2022-12-07T20:36:40;6.00;99.90
3310;DHT22;1667;53.238;10.394;2022-12-07T20:41:39;6.00;99.90
3310;DHT22;1667;53.238;10.394;2022-12-07T20:46:56;6.10;99.90
3310;DHT22;1667;53.238;10.394;2022-12-07T20:51:54;6.00;99.90
3310;DHT22;1667;53.238;10.394;2022-12-07T20:56:52;6.00;99.90
3310;DHT22;1667;53.238;10.394;2022-12-07T21:01:51;6.00;99.90
3310;DHT22;1667;53.238;10.394;2022-12-07T21:06:51;6.00;99.90
3310;DHT22;1667;53.238;10.394;2022-12-07T21:11:49;6.10;99.90
3310;DHT22;1667;53.238;10.394;2022-12-07T21:16:48;6.00;99.90
3310;DHT22;1667;53.238;10.394;2022-12-07T21:21:46;6.00;99.90
3310;DHT22;1667;53.238;10.394;2022-12-07T21:26:46;6.00;99.90
3310;DHT22;1667;53.238;10.394;2022-12-07T21:31:44;6.30;99.90
3310;DHT22;1667;53.238;10.394;2022-12-07T21:36:42;6.00;99.90
3310;DHT22;1667;53.238;10.394;2022-12-07T21:41:40;6.20;99.90
3310;DHT22;1667;53.238;10.394;2022-12-07T21:46:40;6.00;99.90
3310;DHT22;1667;53.238;10.394;2022-12-07T21:51:39;6.00;99.90
3310;DHT22;1667;53.238;10.394;2022-12-07T21:56:40;6.00;99.90
3310;DHT22;1667;53.238;10.394;2022-12-07T22:01:43;6.00;99.90
3310;DHT22;1667;53.238;10.394;2022-12-07T22:06:44;6.00;99.90
3310;DHT22;1667;53.238;10.394;2022-12-07T22:11:42;6.00;99.90
3310;DHT22;1667;53.238;10.394;2022-12-07T22:16:42;6.10;99.90
3310;DHT22;1667;53.238;10.394;2022-12-07T22:21:40;6.10;99.90
3310;DHT22;1667;53.238;10.394;2022-12-07T22:26:39;6.10;99.90
3310;DHT22;1667;53.238;10.394;2022-12-07T22:31:37;6.10;99.90
3310;DHT22;1667;53.238;10.394;2022-12-07T22:36:38;6.10;99.90
3310;DHT22;1667;53.238;10.394;2022-12-07T22:41:36;6.10;99.90
3310;DHT22;1667;53.238;10.394;2022-12-07T22:46:35;6.50;99.90
3310;DHT22;1667;53.238;10.394;2022-12-07T22:51:35;6.20;99.90
3310;DHT22;1667;53.238;10.394;2022-12-07T22:56:36;6.20;99.90
3310;DHT22;1667;53.238;10.394;2022-12-07T23:01:35;6.20;99.90
3310;DHT22;1667;53.238;10.394;2022-12-07T23:06:33;6.20;99.90
3310;DHT22;1667;53.238;10.394;2022-12-07T23:11:36;6.20;99.90
3310;DHT22;1667;53.238;10.394;2022-12-07T23:23:48;6.20;99.90
3310;DHT22;1667;53.238;10.394;2022-12-07T23:28:47;6.40;99.90
3310;DHT22;1667;53.238;10.394;2022-12-07T23:33:45;6.20;99.90
3310;DHT22;1667;53.238;10.394;2022-12-07T23:45:33;6.20;99.90
3310;DHT22;1667;53.238;10.394;2022-12-07T23:50:32;6.20;99.90
3310;DHT22;1667;53.238;10.394;2022-12-07T23:55:31;6.10;99.90
